createdAt,value
2018-06-09T00:02:33.258Z,99.90
2018-06-09T00:05:00.736Z,99.90
2018-06-09T00:07:28.212Z,99.90
2018-06-09T00:09:55.734Z,99.90
2018-06-09T00:12:23.447Z,99.90
2018-06-09T00:14:50.875Z,99.90
2018-06-09T00:17:18.338Z,99.90
2018-06-09T00:19:45.858Z,99.90
2018-06-09T00:22:13.386Z,99.90
2018-06-09T00:24:40.885Z,99.90
2018-06-09T00:27:08.306Z,99.90
2018-06-09T00:29:35.804Z,99.90
2018-06-09T00:32:03.786Z,99.90
2018-06-09T00:34:31.339Z,99.90
2018-06-09T00:36:58.799Z,99.90
2018-06-09T00:41:53.798Z,99.90
2018-06-09T00:44:21.257Z,99.90
2018-06-09T00:46:48.738Z,99.90
2018-06-09T00:49:16.222Z,99.90
2018-06-09T00:51:43.691Z,99.90
2018-06-09T00:54:11.178Z,99.90
2018-06-09T00:56:45.183Z,99.90
2018-06-09T00:59:12.680Z,99.90
2018-06-09T01:01:40.156Z,99.90
2018-06-09T01:04:07.682Z,99.90
2018-06-09T01:06:35.267Z,99.90
2018-06-09T01:09:03.815Z,99.90
2018-06-09T01:11:31.259Z,99.90
2018-06-09T01:13:58.737Z,99.90
2018-06-09T01:16:26.290Z,99.90
2018-06-09T01:18:53.815Z,99.90
2018-06-09T01:21:21.353Z,99.90
2018-06-09T01:23:48.865Z,99.90
2018-06-09T01:26:16.374Z,99.90
2018-06-09T01:28:43.806Z,99.90
2018-06-09T01:31:11.285Z,99.90
2018-06-09T01:33:38.833Z,99.90
2018-06-09T01:36:06.358Z,99.90
2018-06-09T01:38:35.884Z,99.90
2018-06-09T01:41:03.425Z,99.90
2018-06-09T01:43:30.966Z,99.90
2018-06-09T01:45:58.443Z,99.90
2018-06-09T01:48:25.904Z,99.90
2018-06-09T01:50:53.475Z,99.90
2018-06-09T01:53:21.045Z,99.90
2018-06-09T01:55:48.576Z,99.90
2018-06-09T01:58:16.022Z,99.90
2018-06-09T02:00:43.523Z,99.90
2018-06-09T02:03:11.068Z,99.90
2018-06-09T02:05:38.546Z,99.90
2018-06-09T02:08:06.087Z,99.90
2018-06-09T02:10:33.543Z,99.90
2018-06-09T02:13:01.070Z,99.90
2018-06-09T02:15:28.491Z,99.90
2018-06-09T02:17:56.036Z,99.90
2018-06-09T02:20:23.493Z,99.90
2018-06-09T02:22:51.005Z,99.90
2018-06-09T02:25:18.475Z,99.90
2018-06-09T02:27:45.915Z,99.90
2018-06-09T02:30:13.414Z,99.90
2018-06-09T02:32:40.976Z,99.90
2018-06-09T02:35:18.603Z,99.90
2018-06-09T02:37:46.159Z,99.90
2018-06-09T02:40:13.679Z,99.90
2018-06-09T02:42:41.183Z,99.90
2018-06-09T02:45:08.710Z,99.90
2018-06-09T02:47:36.159Z,99.90
2018-06-09T02:50:03.752Z,99.90
2018-06-09T02:52:32.186Z,99.90
2018-06-09T02:54:59.650Z,99.90
2018-06-09T02:57:27.134Z,99.90
2018-06-09T02:59:54.608Z,99.90
2018-06-09T03:02:22.114Z,99.90
2018-06-09T03:04:49.605Z,99.90
2018-06-09T03:07:17.150Z,99.90
2018-06-09T03:09:44.658Z,99.90
2018-06-09T03:12:12.103Z,99.90
2018-06-09T03:14:39.614Z,99.90
2018-06-09T03:17:07.134Z,99.90
2018-06-09T03:19:34.606Z,99.90
2018-06-09T03:22:02.192Z,99.90
2018-06-09T03:24:29.613Z,99.90
2018-06-09T03:26:57.220Z,99.90
2018-06-09T03:29:24.726Z,99.90
2018-06-09T03:31:52.204Z,99.90
2018-06-09T03:34:19.783Z,99.90
2018-06-09T03:36:47.331Z,99.90
2018-06-09T03:39:14.790Z,99.90
2018-06-09T03:41:42.351Z,99.90
2018-06-09T03:44:10.218Z,99.90
2018-06-09T03:46:37.758Z,99.90
2018-06-09T03:49:05.204Z,99.90
2018-06-09T03:51:32.735Z,99.90
2018-06-09T03:54:06.238Z,99.90
2018-06-09T03:56:33.799Z,99.90
2018-06-09T03:59:01.305Z,99.90
2018-06-09T04:01:28.889Z,99.90
2018-06-09T04:03:56.433Z,99.90
2018-06-09T04:06:23.921Z,99.90
2018-06-09T04:08:51.402Z,99.90
2018-06-09T04:11:18.802Z,99.90
2018-06-09T04:14:04.936Z,99.90
2018-06-09T04:16:32.464Z,99.90
2018-06-09T04:18:59.906Z,99.90
2018-06-09T04:21:27.546Z,99.90
2018-06-09T04:23:55.177Z,99.90
2018-06-09T04:26:22.727Z,99.90
2018-06-09T04:28:50.235Z,99.90
2018-06-09T04:31:17.713Z,99.90
2018-06-09T04:33:45.248Z,99.90
2018-06-09T04:36:12.734Z,99.90
2018-06-09T04:38:40.191Z,99.90
2018-06-09T04:41:07.959Z,99.90
2018-06-09T04:43:35.852Z,99.90
2018-06-09T04:46:03.710Z,99.90
2018-06-09T04:48:32.303Z,99.90
2018-06-09T04:50:59.802Z,99.90
2018-06-09T04:53:27.377Z,99.90
2018-06-09T04:55:55.272Z,99.90
2018-06-09T04:58:22.797Z,99.90
2018-06-09T05:00:50.320Z,99.90
2018-06-09T05:03:17.906Z,99.90
2018-06-09T05:05:45.587Z,99.90
2018-06-09T05:08:13.178Z,99.90
2018-06-09T05:10:40.698Z,99.90
2018-06-09T05:13:08.231Z,99.90
2018-06-09T05:15:35.747Z,99.90
2018-06-09T05:18:03.719Z,99.90
2018-06-09T05:20:32.562Z,99.90
2018-06-09T05:22:59.983Z,99.90
2018-06-09T05:25:27.687Z,99.90
2018-06-09T05:27:55.274Z,99.90
2018-06-09T05:32:50.754Z,99.90
2018-06-09T05:35:18.333Z,99.90
2018-06-09T05:37:46.924Z,99.90
2018-06-09T05:40:14.553Z,99.90
2018-06-09T05:42:42.171Z,99.90
2018-06-09T05:45:09.710Z,99.90
2018-06-09T05:47:37.286Z,99.90
2018-06-09T05:50:04.872Z,99.90
2018-06-09T05:52:32.419Z,99.90
2018-06-09T05:55:00.060Z,99.90
2018-06-09T05:57:27.568Z,99.90
2018-06-09T05:59:55.178Z,99.90
2018-06-09T06:02:22.751Z,99.90
2018-06-09T06:04:50.284Z,99.90
2018-06-09T06:07:17.763Z,99.90
2018-06-09T06:09:45.264Z,99.90
2018-06-09T06:12:12.808Z,99.90
2018-06-09T06:14:40.334Z,99.90
2018-06-09T06:17:07.880Z,99.90
2018-06-09T06:19:35.429Z,99.90
2018-06-09T06:22:03.266Z,99.90
2018-06-09T06:24:30.809Z,99.90
2018-06-09T06:26:58.535Z,99.90
2018-06-09T06:29:26.088Z,99.90
2018-06-09T06:31:53.818Z,99.90
2018-06-09T06:34:21.266Z,99.90
2018-06-09T06:36:56.219Z,99.90
2018-06-09T06:39:23.791Z,99.90
2018-06-09T06:41:51.321Z,99.90
2018-06-09T06:44:19.916Z,99.90
2018-06-09T06:46:47.543Z,99.90
2018-06-09T06:49:15.084Z,99.90
2018-06-09T06:51:42.751Z,99.90
2018-06-09T06:54:10.404Z,99.90
2018-06-09T06:56:38.070Z,99.90
2018-06-09T06:59:05.535Z,99.90
2018-06-09T07:01:33.075Z,99.90
2018-06-09T07:04:00.586Z,99.90
2018-06-09T07:06:28.027Z,99.90
2018-06-09T07:08:55.597Z,99.90
2018-06-09T07:11:23.256Z,99.90
2018-06-09T07:13:50.821Z,99.90
2018-06-09T07:16:18.324Z,99.90
2018-06-09T07:18:45.898Z,99.90
2018-06-09T07:21:13.451Z,99.90
2018-06-09T07:23:40.931Z,99.90
2018-06-09T07:26:08.457Z,99.90
2018-06-09T07:28:36.302Z,99.90
2018-06-09T07:31:03.941Z,99.90
2018-06-09T07:33:31.519Z,99.90
2018-06-09T07:35:58.997Z,99.90
2018-06-09T07:38:26.564Z,99.90
2018-06-09T07:40:54.077Z,99.90
2018-06-09T07:43:21.682Z,99.90
2018-06-09T07:45:49.327Z,99.90
2018-06-09T07:48:16.759Z,99.90
2018-06-09T07:50:44.298Z,99.90
2018-06-09T07:53:12.034Z,99.90
2018-06-09T07:55:39.563Z,99.90
2018-06-09T07:58:07.127Z,99.90
2018-06-09T08:00:34.795Z,99.90
2018-06-09T08:03:02.348Z,99.90
2018-06-09T08:05:29.900Z,99.90
2018-06-09T08:07:57.438Z,99.90
2018-06-09T08:10:28.922Z,99.90
2018-06-09T08:12:56.514Z,99.90
2018-06-09T08:15:24.052Z,99.90
2018-06-09T08:17:51.530Z,99.90
2018-06-09T08:20:19.148Z,99.90
2018-06-09T08:22:46.627Z,99.90
2018-06-09T08:25:14.070Z,99.90
2018-06-09T08:27:42.735Z,99.90
2018-06-09T08:30:10.186Z,99.90
2018-06-09T08:32:37.739Z,99.90
2018-06-09T08:35:05.323Z,99.90
2018-06-09T08:37:32.864Z,99.90
2018-06-09T08:40:00.391Z,99.90
2018-06-09T08:42:27.914Z,99.90
2018-06-09T08:44:55.447Z,99.90
2018-06-09T08:47:23.000Z,99.90
2018-06-09T08:49:50.486Z,99.90
2018-06-09T08:52:18.024Z,99.90
2018-06-09T08:54:45.570Z,99.90
2018-06-09T08:57:13.133Z,99.90
2018-06-09T08:59:40.580Z,99.90
2018-06-09T09:02:08.151Z,99.90
2018-06-09T09:04:35.883Z,99.90
2018-06-09T09:07:03.553Z,99.90
2018-06-09T09:09:31.162Z,99.90
2018-06-09T09:11:58.672Z,99.90
2018-06-09T09:14:26.190Z,99.90
2018-06-09T09:19:21.253Z,99.90
2018-06-09T09:21:48.883Z,99.90
2018-06-09T09:24:16.544Z,99.90
2018-06-09T09:26:44.348Z,99.90
2018-06-09T09:29:11.854Z,99.90
2018-06-09T09:31:39.406Z,99.90
2018-06-09T09:34:08.012Z,99.90
2018-06-09T09:36:36.724Z,99.90
2018-06-09T09:39:07.079Z,99.90
2018-06-09T09:41:34.695Z,99.90
2018-06-09T09:44:02.310Z,99.90
2018-06-09T09:46:29.846Z,99.90
2018-06-09T09:48:57.408Z,99.90
2018-06-09T09:51:24.879Z,99.90
2018-06-09T09:53:52.446Z,99.90
2018-06-09T09:56:19.941Z,99.90
2018-06-09T09:58:47.483Z,99.90
2018-06-09T10:01:14.999Z,99.90
2018-06-09T10:03:42.459Z,99.90
2018-06-09T10:08:38.138Z,99.90
2018-06-09T10:11:05.880Z,99.90
2018-06-09T10:13:33.394Z,99.90
2018-06-09T10:16:00.831Z,99.90
2018-06-09T10:18:28.257Z,99.90
2018-06-09T10:20:55.751Z,99.90
2018-06-09T10:23:24.257Z,99.90
2018-06-09T10:25:51.749Z,99.90
2018-06-09T10:28:19.195Z,99.90
2018-06-09T10:30:46.766Z,99.90
2018-06-09T10:33:14.334Z,99.90
2018-06-09T10:35:41.862Z,99.90
2018-06-09T10:38:09.590Z,99.90
2018-06-09T10:40:37.185Z,99.90
2018-06-09T10:43:04.706Z,99.90
2018-06-09T10:45:32.553Z,99.90
2018-06-09T10:48:00.059Z,99.90
2018-06-09T10:50:27.624Z,99.90
2018-06-09T10:52:55.282Z,99.90
2018-06-09T11:01:59.870Z,99.90
2018-06-09T11:04:27.473Z,99.90
2018-06-09T11:06:55.150Z,99.90
2018-06-09T11:09:22.992Z,99.90
2018-06-09T11:11:50.929Z,99.90
2018-06-09T11:14:19.849Z,99.90
2018-06-09T11:16:47.570Z,99.90
2018-06-09T11:19:15.133Z,99.90
2018-06-09T11:21:42.687Z,99.90
2018-06-09T11:24:10.493Z,99.90
2018-06-09T11:26:38.402Z,99.90
2018-06-09T11:29:06.499Z,99.90
2018-06-09T11:31:35.196Z,99.90
2018-06-09T11:34:07.983Z,99.90
2018-06-09T11:36:37.052Z,99.90
2018-06-09T11:41:34.546Z,99.90
2018-06-09T11:44:02.725Z,99.90
2018-06-09T11:46:32.807Z,99.90
2018-06-09T11:49:02.151Z,99.90
2018-06-09T11:51:31.177Z,99.90
2018-06-09T11:53:59.192Z,99.90
2018-06-09T11:56:27.361Z,99.90
2018-06-09T12:01:23.277Z,99.90
2018-06-09T12:03:50.974Z,99.90
2018-06-09T12:06:18.638Z,99.90
2018-06-09T12:08:46.384Z,99.90
2018-06-09T12:13:41.785Z,99.90
2018-06-09T12:16:09.702Z,99.90
2018-06-09T12:18:37.561Z,99.90
2018-06-09T12:21:05.421Z,99.90
2018-06-09T12:23:33.361Z,99.90
2018-06-09T12:28:29.158Z,99.90
2018-06-09T12:30:57.062Z,99.90
2018-06-09T12:33:24.660Z,99.90
2018-06-09T12:35:52.325Z,99.90
2018-06-09T12:38:20.415Z,99.90
2018-06-09T12:40:48.156Z,99.90
2018-06-09T12:43:16.299Z,99.90
2018-06-09T12:45:44.124Z,99.90
2018-06-09T12:48:11.825Z,99.90
2018-06-09T12:53:07.271Z,99.90
2018-06-09T12:58:03.196Z,99.90
2018-06-09T13:00:32.082Z,99.90
2018-06-09T13:02:59.878Z,99.90
2018-06-09T13:05:27.535Z,99.90
2018-06-09T13:07:55.234Z,99.90
2018-06-09T13:10:22.853Z,99.90
2018-06-09T13:12:50.492Z,99.90
2018-06-09T13:15:18.086Z,99.90
2018-06-09T13:17:45.724Z,99.90
2018-06-09T13:20:13.268Z,99.90
2018-06-09T13:22:40.953Z,99.90
2018-06-09T13:25:08.679Z,99.90
2018-06-09T13:27:36.471Z,99.90
2018-06-09T13:30:05.080Z,99.90
2018-06-09T13:32:33.183Z,99.90
2018-06-09T13:35:01.119Z,99.90
2018-06-09T13:37:28.890Z,99.90
2018-06-09T13:39:56.726Z,99.90
2018-06-09T13:42:24.338Z,99.90
2018-06-09T13:44:51.866Z,99.90
2018-06-09T13:49:47.508Z,99.90
2018-06-09T13:52:15.173Z,99.90
2018-06-09T13:54:42.845Z,99.90
2018-06-09T13:57:10.606Z,99.90
2018-06-09T13:59:38.360Z,99.90
2018-06-09T14:02:06.967Z,99.90
2018-06-09T14:04:34.737Z,99.90
2018-06-09T14:07:02.489Z,99.90
2018-06-09T14:09:30.271Z,99.00
2018-06-09T14:11:58.003Z,99.90
2018-06-09T14:14:25.932Z,98.40
2018-06-09T14:16:53.533Z,98.80
2018-06-09T14:19:21.338Z,98.40
2018-06-09T14:21:49.025Z,97.30
2018-06-09T14:24:16.812Z,95.70
2018-06-09T14:26:44.643Z,95.40
2018-06-09T14:29:12.257Z,96.50
2018-06-09T14:31:39.824Z,96.90
2018-06-09T14:34:07.435Z,97.00
2018-06-09T14:39:05.541Z,96.30
2018-06-09T14:41:33.448Z,95.80
2018-06-09T14:44:01.197Z,95.30
2018-06-09T14:46:28.988Z,95.30
2018-06-09T14:48:56.672Z,94.30
2018-06-09T14:51:24.419Z,94.20
2018-06-09T14:53:52.125Z,94.60
2018-06-09T14:56:19.988Z,93.70
2018-06-09T14:58:47.590Z,94.10
2018-06-09T15:01:15.183Z,94.50
2018-06-09T15:03:42.798Z,94.20
2018-06-09T15:06:10.583Z,94.00
2018-06-09T15:08:38.326Z,94.10
2018-06-09T15:13:33.827Z,92.80
2018-06-09T15:16:01.604Z,93.30
2018-06-09T15:18:29.324Z,93.00
2018-06-09T15:20:56.961Z,92.70
2018-06-09T15:23:24.677Z,92.50
2018-06-09T15:25:52.315Z,92.10
2018-06-09T15:28:19.946Z,91.90
2018-06-09T15:30:47.658Z,92.10
2018-06-09T15:33:15.329Z,93.10
2018-06-09T15:35:42.953Z,93.30
2018-06-09T15:38:10.549Z,92.60
2018-06-09T15:40:38.310Z,93.50
2018-06-09T15:43:06.012Z,94.00
2018-06-09T15:45:33.808Z,93.20
2018-06-09T15:48:01.604Z,93.60
2018-06-09T15:50:29.397Z,93.60
2018-06-09T15:52:57.041Z,93.60
2018-06-09T15:57:52.325Z,94.90
2018-06-09T16:00:20.075Z,94.70
2018-06-09T16:02:47.779Z,94.60
2018-06-09T16:05:15.425Z,95.20
2018-06-09T16:07:43.013Z,95.50
2018-06-09T16:10:10.644Z,95.70
2018-06-09T16:12:38.715Z,95.70
2018-06-09T16:15:06.512Z,95.30
2018-06-09T16:17:34.228Z,95.30
2018-06-09T16:20:02.025Z,94.60
2018-06-09T16:22:29.974Z,95.10
2018-06-09T16:24:57.960Z,95.00
2018-06-09T16:27:25.605Z,95.00
2018-06-09T16:29:53.172Z,94.70
2018-06-09T16:32:21.308Z,94.80
2018-06-09T16:34:49.120Z,94.80
2018-06-09T16:37:16.645Z,95.20
2018-06-09T16:39:44.334Z,94.70
2018-06-09T16:42:11.943Z,93.50
2018-06-09T16:44:39.673Z,94.30
2018-06-09T16:47:07.269Z,94.30
2018-06-09T16:49:34.949Z,94.30
2018-06-09T16:52:02.716Z,94.70
2018-06-09T16:54:30.579Z,94.60
2018-06-09T16:56:58.300Z,95.10
2018-06-09T16:59:25.950Z,94.70
2018-06-09T17:01:53.658Z,94.40
2018-06-09T17:04:21.381Z,94.90
2018-06-09T17:06:49.181Z,93.80
2018-06-09T17:09:16.946Z,94.10
2018-06-09T17:11:44.657Z,94.60
2018-06-09T17:14:12.449Z,95.10
2018-06-09T17:16:40.473Z,95.30
2018-06-09T17:19:08.691Z,94.80
2018-06-09T17:21:36.918Z,95.40
2018-06-09T17:24:07.114Z,95.30
2018-06-09T17:26:35.885Z,95.50
2018-06-09T17:29:03.962Z,95.60
2018-06-09T17:31:31.975Z,95.70
2018-06-09T17:33:59.756Z,96.00
2018-06-09T17:36:27.616Z,96.30
2018-06-09T17:38:55.536Z,96.30
2018-06-09T17:41:25.005Z,96.30
2018-06-09T17:43:52.954Z,97.20
2018-06-09T17:46:21.212Z,97.80
2018-06-09T17:48:48.810Z,98.20
2018-06-09T17:51:16.514Z,97.30
2018-06-09T17:53:44.069Z,97.10
2018-06-09T17:56:13.185Z,97.30
2018-06-09T17:58:41.492Z,96.40
2018-06-09T18:01:09.654Z,96.50
2018-06-09T18:03:37.706Z,96.70
2018-06-09T18:06:07.189Z,97.40
2018-06-09T18:08:35.118Z,97.50
2018-06-09T18:11:03.208Z,97.50
2018-06-09T18:13:31.075Z,97.50
2018-06-09T18:15:58.855Z,97.80
2018-06-09T18:18:26.502Z,97.90
2018-06-09T18:20:54.144Z,98.20
2018-06-09T18:23:21.782Z,98.60
2018-06-09T18:25:49.622Z,98.90
2018-06-09T18:28:17.354Z,98.90
2018-06-09T18:30:45.182Z,98.80
2018-06-09T18:33:12.837Z,99.00
2018-06-09T18:35:40.476Z,99.40
2018-06-09T18:38:08.594Z,99.50
2018-06-09T18:40:36.885Z,99.60
2018-06-09T18:43:05.171Z,99.80
2018-06-09T18:45:33.219Z,99.70
2018-06-09T18:48:01.145Z,99.90
2018-06-09T18:50:29.386Z,99.90
2018-06-09T18:52:57.321Z,99.90
2018-06-09T18:55:24.908Z,99.90
2018-06-09T18:57:52.483Z,99.90
2018-06-09T19:00:20.376Z,99.90
2018-06-09T19:02:47.959Z,99.90
2018-06-09T19:05:15.740Z,99.90
2018-06-09T19:07:43.390Z,99.90
2018-06-09T19:10:11.273Z,99.90
2018-06-09T19:12:38.829Z,99.90
2018-06-09T19:15:06.989Z,99.90
2018-06-09T19:17:34.705Z,99.90
2018-06-09T19:20:02.815Z,99.90
2018-06-09T19:22:30.864Z,99.90
2018-06-09T19:24:58.804Z,99.90
2018-06-09T19:27:26.629Z,99.90
2018-06-09T19:29:54.452Z,99.90
2018-06-09T19:32:22.086Z,99.90
2018-06-09T19:37:17.339Z,99.90
2018-06-09T19:39:45.053Z,99.90
2018-06-09T19:44:40.803Z,99.90
2018-06-09T19:47:08.372Z,99.90
2018-06-09T19:49:36.514Z,99.90
2018-06-09T19:52:04.718Z,99.90
2018-06-09T19:54:32.790Z,99.90
2018-06-09T19:57:00.936Z,99.90
2018-06-09T19:59:28.820Z,99.90
2018-06-09T20:04:24.485Z,99.90
2018-06-09T20:06:52.402Z,99.90
2018-06-09T20:09:19.992Z,99.90
2018-06-09T20:11:48.322Z,99.90
2018-06-09T20:14:16.226Z,99.90
2018-06-09T20:16:43.992Z,99.90
2018-06-09T20:19:11.842Z,99.90
2018-06-09T20:21:39.668Z,99.90
2018-06-09T20:24:07.442Z,99.90
2018-06-09T20:26:37.004Z,99.90
2018-06-09T20:29:08.964Z,99.90
2018-06-09T20:34:05.571Z,99.90
2018-06-09T20:36:34.363Z,99.90
2018-06-09T20:39:02.563Z,99.90
2018-06-09T20:41:30.721Z,99.90
2018-06-09T20:43:58.628Z,99.90
2018-06-09T20:48:54.266Z,99.90
2018-06-09T20:51:22.083Z,99.90
2018-06-09T20:53:49.757Z,99.90
2018-06-09T20:56:17.448Z,99.90
2018-06-09T20:58:45.102Z,99.90
2018-06-09T21:01:13.015Z,99.90
2018-06-09T21:03:40.902Z,99.90
2018-06-09T21:06:08.763Z,99.90
2018-06-09T21:08:36.603Z,99.90
2018-06-09T21:13:32.825Z,99.90
2018-06-09T21:16:00.581Z,99.90
2018-06-09T21:18:28.449Z,99.90
2018-06-09T21:20:56.061Z,99.90
2018-06-09T21:23:23.788Z,99.90
2018-06-09T21:25:51.471Z,99.90
2018-06-09T21:28:26.997Z,99.90
2018-06-09T21:30:56.151Z,99.90
2018-06-09T21:33:40.863Z,99.90
2018-06-09T21:36:12.742Z,99.90
2018-06-09T21:38:46.011Z,99.90
2018-06-09T21:41:19.315Z,99.90
2018-06-09T21:43:51.152Z,99.90
2018-06-09T21:46:24.490Z,99.90
2018-06-09T21:48:52.141Z,99.90
2018-06-09T21:51:19.825Z,99.90
2018-06-09T21:53:47.545Z,99.90
2018-06-09T21:56:15.129Z,99.90
2018-06-09T21:58:42.747Z,99.90
2018-06-09T22:01:10.364Z,99.90
2018-06-09T22:03:38.350Z,99.90
2018-06-09T22:06:06.907Z,99.90
2018-06-09T22:08:34.821Z,99.90
2018-06-09T22:11:02.700Z,99.90
2018-06-09T22:13:30.582Z,99.90
2018-06-09T22:15:58.382Z,99.90
2018-06-09T22:18:26.129Z,99.90
2018-06-09T22:20:53.885Z,99.90
2018-06-09T22:23:21.505Z,99.90
2018-06-09T22:25:54.929Z,99.90
2018-06-09T22:28:22.703Z,99.90
2018-06-09T22:30:50.494Z,99.90
2018-06-09T22:33:18.106Z,99.90
2018-06-09T22:35:45.673Z,99.90
2018-06-09T22:38:14.254Z,99.90
2018-06-09T22:40:41.950Z,99.90
2018-06-09T22:43:09.639Z,99.90
2018-06-09T22:45:37.380Z,99.90
2018-06-09T22:48:06.140Z,99.90
2018-06-09T22:50:33.955Z,99.90
2018-06-09T22:53:02.028Z,99.90
2018-06-09T22:55:30.550Z,99.90
2018-06-09T22:57:58.365Z,99.90
2018-06-09T23:00:33.217Z,99.90
2018-06-09T23:03:01.152Z,99.90
2018-06-09T23:05:29.009Z,99.90
2018-06-09T23:07:56.713Z,99.90
2018-06-09T23:10:24.348Z,99.90
2018-06-09T23:15:19.770Z,99.90
2018-06-09T23:17:50.093Z,99.90
2018-06-09T23:20:23.912Z,99.90
2018-06-09T23:22:51.686Z,99.90
2018-06-09T23:25:19.346Z,99.90
2018-06-09T23:30:14.459Z,99.90
2018-06-09T23:32:42.008Z,99.90
2018-06-09T23:35:09.871Z,99.90
2018-06-09T23:37:37.748Z,99.90
2018-06-09T23:40:06.044Z,99.90
2018-06-09T23:42:33.850Z,99.90
2018-06-09T23:45:01.712Z,99.90
2018-06-09T23:47:29.690Z,99.90
2018-06-09T23:49:57.513Z,99.90
2018-06-09T23:52:25.144Z,99.90
2018-06-09T23:54:52.880Z,99.90
2018-06-09T23:57:20.545Z,99.90
2018-06-09T23:59:48.198Z,99.90
